createdAt,value
2022-12-18T00:00:42.533Z,91.99
2022-12-18T00:05:34.324Z,91.37
2022-12-18T00:10:26.003Z,91.49
2022-12-18T00:15:17.847Z,90.74
2022-12-18T00:20:10.294Z,90.44
2022-12-18T00:25:02.108Z,90.52
2022-12-18T00:29:53.764Z,90.31
2022-12-18T00:34:45.396Z,90.36
2022-12-18T00:39:37.051Z,90.52
2022-12-18T00:44:28.653Z,90.79
2022-12-18T00:49:21.228Z,90.50
2022-12-18T00:54:13.073Z,90.69
2022-12-18T00:59:05.266Z,90.64
2022-12-18T01:03:58.260Z,90.30
2022-12-18T01:08:49.856Z,90.07
2022-12-18T01:13:41.961Z,89.87
2022-12-18T01:18:34.092Z,90.12
2022-12-18T01:23:26.171Z,90.09
2022-12-18T01:28:18.035Z,90.40
2022-12-18T01:33:09.635Z,91.00
2022-12-18T01:38:01.343Z,91.15
2022-12-18T01:42:53.755Z,91.07
2022-12-18T01:47:56.215Z,91.20
2022-12-18T01:52:51.040Z,90.84
2022-12-18T01:57:43.255Z,90.64
2022-12-18T02:02:35.056Z,91.05
2022-12-18T02:07:41.633Z,91.32
2022-12-18T02:12:57.708Z,91.61
2022-12-18T02:17:55.871Z,91.81
2022-12-18T02:23:19.891Z,92.67
2022-12-18T02:28:16.431Z,92.54
2022-12-18T02:33:11.033Z,93.31
2022-12-18T02:38:05.158Z,93.81
2022-12-18T02:43:03.085Z,93.50
2022-12-18T02:47:54.936Z,94.16
2022-12-18T02:52:52.430Z,94.22
2022-12-18T02:57:51.728Z,94.53
2022-12-18T03:02:47.453Z,94.69
2022-12-18T03:07:57.932Z,94.83
2022-12-18T03:12:56.408Z,95.27
2022-12-18T03:17:56.072Z,95.05
2022-12-18T03:22:52.991Z,95.49
2022-12-18T03:27:50.074Z,95.58
2022-12-18T03:32:49.608Z,95.66
2022-12-18T03:37:41.384Z,95.96
2022-12-18T03:42:50.516Z,96.30
2022-12-18T03:47:59.287Z,96.40
2022-12-18T03:53:09.989Z,96.89
2022-12-18T03:58:04.624Z,97.33
2022-12-18T04:02:59.271Z,97.87
2022-12-18T04:07:52.983Z,97.55
2022-12-18T04:12:45.291Z,97.90
2022-12-18T04:17:37.025Z,98.17
2022-12-18T04:22:28.963Z,98.39
2022-12-18T04:27:20.607Z,98.14
2022-12-18T04:32:12.410Z,98.51
2022-12-18T04:37:04.090Z,99.66
2022-12-18T04:41:55.767Z,100.00
2022-12-18T04:46:47.734Z,100.00
2022-12-18T04:51:40.186Z,100.00
2022-12-18T04:56:33.162Z,100.00
2022-12-18T05:01:34.795Z,100.00
2022-12-18T05:06:26.908Z,100.00
2022-12-18T05:11:18.947Z,100.00
2022-12-18T05:16:11.254Z,100.00
2022-12-18T05:21:03.833Z,100.00
2022-12-18T05:25:58.249Z,100.00
2022-12-18T05:30:54.030Z,100.00
2022-12-18T05:35:45.996Z,100.00
2022-12-18T05:40:37.865Z,100.00
2022-12-18T05:45:29.440Z,100.00
2022-12-18T05:50:20.983Z,100.00
2022-12-18T05:55:12.606Z,100.00
2022-12-18T06:00:05.331Z,100.00
2022-12-18T06:04:56.964Z,100.00
2022-12-18T06:09:48.560Z,100.00
2022-12-18T06:14:40.168Z,100.00
2022-12-18T06:19:31.708Z,100.00
2022-12-18T06:24:23.268Z,100.00
2022-12-18T06:29:14.906Z,100.00
2022-12-18T06:34:06.609Z,100.00
2022-12-18T06:38:58.688Z,100.00
2022-12-18T06:43:50.523Z,100.00
2022-12-18T06:48:42.480Z,100.00
2022-12-18T06:53:34.506Z,100.00
2022-12-18T06:58:26.112Z,100.00
2022-12-18T07:03:17.763Z,100.00
2022-12-18T07:08:09.370Z,100.00
2022-12-18T07:13:01.787Z,100.00
2022-12-18T07:17:53.512Z,100.00
2022-12-18T07:22:45.075Z,100.00
2022-12-18T07:27:36.756Z,100.00
2022-12-18T07:32:28.427Z,100.00
2022-12-18T07:37:20.198Z,100.00
2022-12-18T07:42:30.799Z,100.00
2022-12-18T07:47:22.449Z,100.00
2022-12-18T07:52:14.047Z,100.00
2022-12-18T07:57:16.447Z,100.00
2022-12-18T08:02:17.456Z,100.00
2022-12-18T08:07:09.224Z,100.00
2022-12-18T08:12:00.880Z,100.00
2022-12-18T08:16:52.891Z,100.00
2022-12-18T08:21:44.678Z,100.00
2022-12-18T08:26:36.270Z,100.00
2022-12-18T08:31:29.850Z,100.00
2022-12-18T08:36:22.532Z,100.00
2022-12-18T08:41:16.775Z,100.00
2022-12-18T08:46:08.793Z,100.00
2022-12-18T08:51:00.918Z,100.00
2022-12-18T08:55:53.074Z,100.00
2022-12-18T09:00:44.715Z,100.00
2022-12-18T09:05:36.555Z,100.00
2022-12-18T09:10:28.171Z,100.00
2022-12-18T09:15:19.921Z,100.00
2022-12-18T09:20:12.781Z,100.00
2022-12-18T09:25:05.335Z,100.00
2022-12-18T09:29:56.967Z,100.00
2022-12-18T09:34:48.637Z,100.00
2022-12-18T09:39:41.178Z,100.00
2022-12-18T09:44:47.572Z,100.00
2022-12-18T09:49:45.540Z,100.00
2022-12-18T09:54:40.964Z,100.00
2022-12-18T09:59:40.250Z,100.00
2022-12-18T10:04:33.372Z,100.00
2022-12-18T10:09:38.615Z,100.00
2022-12-18T10:15:05.710Z,100.00
2022-12-18T10:20:07.755Z,100.00
2022-12-18T10:25:06.869Z,100.00
2022-12-18T10:29:59.143Z,100.00
2022-12-18T10:35:00.190Z,100.00
2022-12-18T10:40:10.487Z,100.00
2022-12-18T10:45:09.357Z,100.00
2022-12-18T10:50:01.065Z,100.00
2022-12-18T10:55:05.131Z,100.00
2022-12-18T10:59:59.071Z,100.00
2022-12-18T11:04:52.857Z,100.00
2022-12-18T11:09:44.538Z,100.00
2022-12-18T11:14:57.099Z,100.00
2022-12-18T11:19:57.124Z,100.00
2022-12-18T11:25:30.211Z,100.00
2022-12-18T11:30:22.290Z,100.00
2022-12-18T11:35:18.951Z,100.00
2022-12-18T11:40:19.693Z,100.00
2022-12-18T11:45:14.220Z,100.00
2022-12-18T11:50:17.671Z,100.00
2022-12-18T11:55:44.813Z,100.00
2022-12-18T12:00:49.572Z,100.00
2022-12-18T12:06:05.873Z,100.00
2022-12-18T12:11:06.064Z,100.00
2022-12-18T12:16:16.532Z,100.00
2022-12-18T12:21:14.447Z,100.00
2022-12-18T12:26:13.089Z,100.00
2022-12-18T12:31:04.836Z,100.00
2022-12-18T12:36:01.979Z,100.00
2022-12-18T12:41:33.875Z,100.00
2022-12-18T12:46:27.556Z,100.00
2022-12-18T12:51:29.294Z,100.00
2022-12-18T12:56:22.728Z,100.00
2022-12-18T13:01:24.285Z,100.00
2022-12-18T13:06:44.986Z,100.00
2022-12-18T13:12:00.003Z,100.00
2022-12-18T13:16:52.607Z,100.00
2022-12-18T13:21:54.728Z,100.00
2022-12-18T13:26:46.843Z,100.00
2022-12-18T13:31:42.359Z,100.00
2022-12-18T13:36:35.301Z,100.00
2022-12-18T13:41:30.179Z,100.00
2022-12-18T13:46:42.984Z,100.00
2022-12-18T13:51:35.874Z,100.00
2022-12-18T13:56:30.763Z,100.00
2022-12-18T14:01:24.252Z,100.00
2022-12-18T14:06:17.666Z,100.00
2022-12-18T14:11:22.091Z,100.00
2022-12-18T14:16:17.744Z,100.00
2022-12-18T14:21:19.157Z,100.00
2022-12-18T14:26:30.241Z,100.00
2022-12-18T14:31:24.918Z,100.00
2022-12-18T14:36:24.579Z,100.00
2022-12-18T14:41:18.409Z,100.00
2022-12-18T14:46:39.527Z,100.00
2022-12-18T14:51:34.346Z,100.00
2022-12-18T14:56:27.575Z,100.00
2022-12-18T15:01:26.295Z,100.00
2022-12-18T15:06:25.775Z,100.00
2022-12-18T15:11:28.173Z,100.00
2022-12-18T15:16:19.962Z,100.00
2022-12-18T15:21:17.432Z,100.00
2022-12-18T15:26:11.496Z,100.00
2022-12-18T15:31:10.163Z,100.00
2022-12-18T15:36:11.040Z,100.00
2022-12-18T15:41:03.232Z,100.00
2022-12-18T15:45:54.921Z,100.00
2022-12-18T15:50:46.972Z,100.00
2022-12-18T15:56:00.969Z,100.00
2022-12-18T16:01:00.208Z,100.00
2022-12-18T16:05:51.810Z,100.00
2022-12-18T16:10:43.618Z,100.00
2022-12-18T16:15:35.291Z,100.00
2022-12-18T16:20:27.064Z,100.00
2022-12-18T16:25:20.545Z,100.00
2022-12-18T16:30:16.937Z,100.00
2022-12-18T16:35:14.853Z,100.00
2022-12-18T16:40:09.904Z,100.00
2022-12-18T16:45:01.526Z,100.00
2022-12-18T16:49:53.393Z,100.00
2022-12-18T16:54:45.079Z,100.00
2022-12-18T16:59:36.927Z,100.00
2022-12-18T17:04:28.671Z,100.00
2022-12-18T17:09:25.568Z,100.00
2022-12-18T17:14:20.376Z,100.00
2022-12-18T17:19:17.092Z,100.00
2022-12-18T17:24:09.606Z,100.00
2022-12-18T17:29:01.596Z,100.00
2022-12-18T17:33:53.772Z,100.00
2022-12-18T17:38:54.291Z,100.00
2022-12-18T17:43:51.890Z,100.00
2022-12-18T17:48:43.635Z,100.00
2022-12-18T17:53:35.196Z,100.00
2022-12-18T17:58:30.584Z,100.00
2022-12-18T18:03:22.493Z,100.00
2022-12-18T18:08:14.313Z,100.00
2022-12-18T18:13:26.604Z,100.00
2022-12-18T18:18:19.572Z,100.00
2022-12-18T18:23:13.607Z,100.00
2022-12-18T18:28:05.455Z,100.00
2022-12-18T18:32:57.055Z,100.00
2022-12-18T18:37:49.344Z,100.00
2022-12-18T18:42:43.019Z,100.00
2022-12-18T18:47:34.657Z,100.00
2022-12-18T18:52:26.279Z,100.00
2022-12-18T18:57:20.705Z,100.00
2022-12-18T19:02:14.893Z,100.00
2022-12-18T19:07:07.808Z,100.00
2022-12-18T19:12:18.432Z,100.00
2022-12-18T19:17:10.375Z,100.00
2022-12-18T19:22:02.173Z,100.00
2022-12-18T19:26:54.167Z,100.00
2022-12-18T19:31:50.158Z,100.00
2022-12-18T19:36:42.136Z,100.00
2022-12-18T19:41:34.027Z,100.00
2022-12-18T19:46:26.868Z,100.00
2022-12-18T19:51:24.950Z,100.00
2022-12-18T19:56:19.349Z,100.00
2022-12-18T20:01:12.753Z,100.00
2022-12-18T20:06:26.814Z,100.00
2022-12-18T20:11:18.624Z,100.00
2022-12-18T20:16:10.838Z,100.00
2022-12-18T20:21:03.429Z,100.00
2022-12-18T20:25:56.121Z,100.00
2022-12-18T20:30:48.037Z,100.00
2022-12-18T20:35:39.667Z,100.00
2022-12-18T20:40:32.073Z,100.00
2022-12-18T20:45:23.795Z,100.00
2022-12-18T20:50:15.458Z,100.00
2022-12-18T20:55:07.589Z,100.00
2022-12-18T20:59:59.234Z,100.00
2022-12-18T21:04:50.848Z,100.00
2022-12-18T21:09:42.476Z,100.00
2022-12-18T21:14:34.420Z,100.00
2022-12-18T21:19:27.488Z,100.00
2022-12-18T21:24:19.912Z,100.00
2022-12-18T21:29:17.544Z,100.00
2022-12-18T21:34:14.863Z,100.00
2022-12-18T21:39:06.529Z,100.00
2022-12-18T21:44:07.445Z,100.00
2022-12-18T21:48:59.154Z,100.00
2022-12-18T21:53:50.842Z,100.00
2022-12-18T21:58:55.378Z,100.00
2022-12-18T22:03:49.140Z,100.00
2022-12-18T22:08:43.618Z,100.00
2022-12-18T22:13:35.620Z,100.00
2022-12-18T22:18:27.488Z,100.00
2022-12-18T22:23:19.125Z,100.00
2022-12-18T22:28:29.624Z,100.00
2022-12-18T22:33:21.251Z,100.00
2022-12-18T22:38:12.887Z,100.00
2022-12-18T22:43:04.574Z,100.00
2022-12-18T22:47:56.419Z,100.00
2022-12-18T22:52:48.025Z,100.00
2022-12-18T22:57:40.642Z,100.00
2022-12-18T23:02:37.821Z,100.00
2022-12-18T23:07:29.625Z,100.00
2022-12-18T23:12:21.439Z,100.00
2022-12-18T23:17:13.533Z,100.00
2022-12-18T23:22:11.371Z,100.00
2022-12-18T23:27:03.319Z,100.00
2022-12-18T23:31:58.400Z,100.00
2022-12-18T23:36:53.270Z,100.00
2022-12-18T23:41:47.652Z,100.00
2022-12-18T23:46:39.536Z,100.00
2022-12-18T23:51:32.086Z,100.00
2022-12-18T23:56:26.765Z,100.00
